createdAt,value
2022-11-02T00:02:05.284Z,101411.38
2022-11-02T00:04:34.057Z,101410.50
2022-11-02T00:07:01.450Z,101413.91
2022-11-02T00:09:28.884Z,101411.31
2022-11-02T00:11:56.553Z,101411.22
2022-11-02T00:14:23.941Z,101402.59
2022-11-02T00:16:51.685Z,101408.75
2022-11-02T00:19:19.231Z,101410.31
2022-11-02T00:21:48.054Z,101409.38
2022-11-02T00:24:15.941Z,101420.72
2022-11-02T00:26:43.345Z,101420.66
2022-11-02T00:29:10.810Z,101417.91
2022-11-02T00:31:38.174Z,101422.34
2022-11-02T00:34:05.555Z,101421.47
2022-11-02T00:36:32.985Z,101416.22
2022-11-02T00:39:01.699Z,101417.19
2022-11-02T00:41:29.185Z,101417.06
2022-11-02T00:43:56.563Z,101417.94
2022-11-02T00:46:24.007Z,101409.31
2022-11-02T00:48:51.969Z,101416.19
2022-11-02T00:51:19.342Z,101418.81
2022-11-02T00:53:46.734Z,101422.19
2022-11-02T00:56:15.453Z,101422.13
2022-11-02T00:58:42.843Z,101430.69
2022-11-02T01:01:10.416Z,101423.06
2022-11-02T01:03:38.089Z,101420.44
2022-11-02T01:06:09.853Z,101421.28
2022-11-02T01:08:37.231Z,101415.13
2022-11-02T01:11:12.508Z,101418.59
2022-11-02T01:13:41.231Z,101418.53
2022-11-02T01:16:09.889Z,101413.53
2022-11-02T01:18:37.557Z,101419.50
2022-11-02T01:21:05.453Z,101417.31
2022-11-02T01:23:34.052Z,101420.28
2022-11-02T01:26:04.478Z,101416.25
2022-11-02T01:28:32.205Z,101412.63
2022-11-02T01:31:01.125Z,101413.56
2022-11-02T01:33:28.930Z,101415.91
2022-11-02T01:35:57.350Z,101423.69
2022-11-02T01:38:25.384Z,101421.94
2022-11-02T01:40:52.763Z,101406.56
2022-11-02T01:43:22.258Z,101406.00
2022-11-02T01:45:52.722Z,101401.88
2022-11-02T01:48:27.500Z,101390.84
2022-11-02T01:50:55.059Z,101394.28
2022-11-02T01:53:22.469Z,101400.22
2022-11-02T01:55:51.902Z,101400.28
2022-11-02T01:58:19.375Z,101397.44
2022-11-02T02:00:47.098Z,101388.09
2022-11-02T02:03:18.179Z,101387.13
2022-11-02T02:05:50.477Z,101392.50
2022-11-02T02:08:20.838Z,101382.09
2022-11-02T02:10:48.223Z,101387.94
2022-11-02T02:13:17.007Z,101388.72
2022-11-02T02:15:57.085Z,101386.91
2022-11-02T02:18:31.213Z,101385.09
2022-11-02T02:21:22.843Z,101387.47
2022-11-02T02:24:45.368Z,101388.56
2022-11-02T02:27:17.073Z,101376.09
2022-11-02T02:29:53.536Z,101386.84
2022-11-02T02:32:28.915Z,101385.28
2022-11-02T02:35:01.293Z,101378.56
2022-11-02T02:37:36.719Z,101384.91
2022-11-02T02:40:09.769Z,101382.59
2022-11-02T02:42:41.946Z,101373.66
2022-11-02T02:45:17.226Z,101371.19
2022-11-02T02:47:49.327Z,101377.22
2022-11-02T02:50:21.658Z,101375.47
2022-11-02T02:52:52.611Z,101373.41
2022-11-02T02:55:26.264Z,101372.09
2022-11-02T02:57:55.502Z,101374.03
2022-11-02T03:00:24.222Z,101369.72
2022-11-02T03:03:01.656Z,101368.03
2022-11-02T03:05:33.777Z,101372.56
2022-11-02T03:08:05.065Z,101374.13
2022-11-02T03:10:42.287Z,101371.66
2022-11-02T03:13:17.666Z,101373.88
2022-11-02T03:15:52.845Z,101359.94
2022-11-02T03:18:27.500Z,101363.88
2022-11-02T03:21:03.877Z,101365.53
2022-11-02T03:23:36.222Z,101360.13
2022-11-02T03:26:08.721Z,101367.78
2022-11-02T03:28:46.680Z,101376.97
2022-11-02T03:31:26.709Z,101374.06
2022-11-02T03:33:59.383Z,101380.25
2022-11-02T03:36:34.016Z,101376.06
2022-11-02T03:39:07.731Z,101365.00
2022-11-02T03:41:37.663Z,101368.88
2022-11-02T03:44:08.450Z,101374.25
2022-11-02T03:46:39.935Z,101369.69
2022-11-02T03:49:11.549Z,101372.84
2022-11-02T03:51:42.010Z,101377.84
2022-11-02T03:54:15.625Z,101375.00
2022-11-02T03:56:47.380Z,101371.25
2022-11-02T03:59:14.938Z,101381.44
2022-11-02T04:01:46.133Z,101368.75
2022-11-02T04:04:13.772Z,101372.03
2022-11-02T04:06:42.763Z,101375.59
2022-11-02T04:09:10.666Z,101375.09
2022-11-02T04:11:55.961Z,101375.66
2022-11-02T04:14:38.639Z,101373.63
2022-11-02T04:17:25.824Z,101361.16
2022-11-02T04:19:53.781Z,101356.69
2022-11-02T04:22:39.055Z,101361.63
2022-11-02T04:25:18.683Z,101367.13
2022-11-02T04:27:49.030Z,101368.06
2022-11-02T04:30:19.006Z,101372.91
2022-11-02T04:33:06.778Z,101360.50
2022-11-02T04:35:35.495Z,101368.78
2022-11-02T04:38:21.459Z,101377.91
2022-11-02T04:40:49.369Z,101374.44
2022-11-02T04:43:16.738Z,101369.88
2022-11-02T04:45:44.115Z,101371.13
2022-11-02T04:48:12.834Z,101372.53
2022-11-02T04:50:40.230Z,101370.09
2022-11-02T04:53:08.166Z,101369.31
2022-11-02T04:55:36.010Z,101374.88
2022-11-02T04:58:03.700Z,101371.19
2022-11-02T05:00:31.420Z,101373.19
2022-11-02T05:02:58.891Z,101366.75
2022-11-02T05:05:27.641Z,101366.84
2022-11-02T05:07:55.034Z,101374.72
2022-11-02T05:10:22.426Z,101377.31
2022-11-02T05:12:49.876Z,101377.72
2022-11-02T05:15:17.414Z,101368.41
2022-11-02T05:17:48.695Z,101363.31
2022-11-02T05:20:16.345Z,101371.50
2022-11-02T05:22:45.447Z,101371.31
2022-11-02T05:25:13.647Z,101380.38
2022-11-02T05:27:41.027Z,101376.03
2022-11-02T05:30:09.331Z,101377.72
2022-11-02T05:32:36.698Z,101374.38
2022-11-02T05:35:04.658Z,101368.00
2022-11-02T05:37:32.070Z,101381.47
2022-11-02T05:40:00.844Z,101371.66
2022-11-02T05:42:28.319Z,101367.19
2022-11-02T05:44:55.710Z,101379.59
2022-11-02T05:47:23.142Z,101376.69
2022-11-02T05:49:50.526Z,101378.47
2022-11-02T05:52:17.957Z,101380.22
2022-11-02T05:54:45.329Z,101373.97
2022-11-02T05:57:14.008Z,101371.34
2022-11-02T05:59:43.813Z,101370.19
2022-11-02T06:02:14.075Z,101373.19
2022-11-02T06:04:41.653Z,101375.34
2022-11-02T06:07:09.020Z,101370.25
2022-11-02T06:09:36.627Z,101377.22
2022-11-02T06:12:04.189Z,101376.72
2022-11-02T06:14:32.916Z,101373.28
2022-11-02T06:17:00.300Z,101374.09
2022-11-02T06:19:27.663Z,101372.34
2022-11-02T06:21:55.052Z,101369.78
2022-11-02T06:24:22.425Z,101370.19
2022-11-02T06:26:49.851Z,101375.03
2022-11-02T06:29:17.213Z,101365.28
2022-11-02T06:31:45.940Z,101374.81
2022-11-02T06:34:13.370Z,101380.09
2022-11-02T06:36:40.873Z,101382.31
2022-11-02T06:39:08.267Z,101386.56
2022-11-02T06:41:35.683Z,101392.53
2022-11-02T06:44:03.127Z,101405.22
2022-11-02T06:46:30.509Z,101402.59
2022-11-02T06:48:59.837Z,101401.16
2022-11-02T06:51:27.220Z,101402.56
2022-11-02T06:53:54.594Z,101404.13
2022-11-02T06:56:22.011Z,101398.28
2022-11-02T06:58:49.404Z,101396.31
2022-11-02T07:01:16.914Z,101401.84
2022-11-02T07:03:44.347Z,101398.41
2022-11-02T07:06:14.485Z,101405.19
2022-11-02T07:08:42.423Z,101403.00
2022-11-02T07:11:14.269Z,101403.59
2022-11-02T07:13:41.668Z,101403.28
2022-11-02T07:16:09.073Z,101415.97
2022-11-02T07:18:36.463Z,101402.03
2022-11-02T07:21:03.942Z,101411.69
2022-11-02T07:23:32.977Z,101402.34
2022-11-02T07:26:02.230Z,101399.78
2022-11-02T07:28:29.673Z,101402.66
2022-11-02T07:30:57.277Z,101402.09
2022-11-02T07:33:24.715Z,101408.16
2022-11-02T07:35:52.116Z,101413.00
2022-11-02T07:38:19.555Z,101413.94
2022-11-02T07:40:49.949Z,101407.25
2022-11-02T07:43:17.511Z,101417.34
2022-11-02T07:45:44.913Z,101419.94
2022-11-02T07:48:12.369Z,101421.03
2022-11-02T07:50:39.833Z,101411.69
2022-11-02T07:53:07.522Z,101417.31
2022-11-02T07:55:35.366Z,101419.72
2022-11-02T07:58:06.018Z,101415.47
2022-11-02T08:00:35.366Z,101423.59
2022-11-02T08:03:04.860Z,101414.44
2022-11-02T08:05:35.705Z,101414.88
2022-11-02T08:08:05.535Z,101418.78
2022-11-02T08:10:38.929Z,101419.13
2022-11-02T08:13:09.396Z,101415.94
2022-11-02T08:15:37.214Z,101413.03
2022-11-02T08:18:06.446Z,101416.91
2022-11-02T08:20:36.213Z,101411.41
2022-11-02T08:23:04.378Z,101402.97
2022-11-02T08:25:32.202Z,101407.53
2022-11-02T08:28:00.702Z,101411.94
2022-11-02T08:30:31.520Z,101417.97
2022-11-02T08:33:03.741Z,101418.00
2022-11-02T08:35:31.189Z,101415.31
2022-11-02T08:37:59.937Z,101411.03
2022-11-02T08:40:28.069Z,101410.22
2022-11-02T08:42:59.294Z,101419.75
2022-11-02T08:45:26.977Z,101416.34
2022-11-02T08:47:56.109Z,101411.16
2022-11-02T08:50:24.378Z,101409.50
2022-11-02T08:52:51.966Z,101400.88
2022-11-02T08:55:19.461Z,101409.47
2022-11-02T08:57:47.361Z,101412.84
2022-11-02T09:00:15.805Z,101416.41
2022-11-02T09:02:44.068Z,101413.66
2022-11-02T09:05:12.863Z,101407.75
2022-11-02T09:07:40.286Z,101409.47
2022-11-02T09:10:08.681Z,101410.16
2022-11-02T09:12:36.080Z,101418.81
2022-11-02T09:15:03.495Z,101422.53
2022-11-02T09:17:30.902Z,101416.03
2022-11-02T09:19:58.276Z,101409.94
2022-11-02T09:22:26.976Z,101404.97
2022-11-02T09:24:54.361Z,101412.59
2022-11-02T09:27:21.732Z,101411.09
2022-11-02T09:29:49.116Z,101413.69
2022-11-02T09:32:16.566Z,101410.31
2022-11-02T09:34:44.074Z,101410.28
2022-11-02T09:37:11.499Z,101415.13
2022-11-02T09:39:40.636Z,101425.59
2022-11-02T09:42:16.769Z,101423.72
2022-11-02T09:44:50.439Z,101422.84
2022-11-02T09:48:02.810Z,101421.41
2022-11-02T09:50:07.212Z,101418.91
2022-11-02T09:52:39.138Z,101413.75
2022-11-02T09:55:16.356Z,101425.84
2022-11-02T09:57:47.140Z,101418.13
2022-11-02T10:00:15.507Z,101422.34
2022-11-02T10:02:52.066Z,101425.00
2022-11-02T10:05:33.148Z,101420.66
2022-11-02T10:08:23.834Z,101425.97
2022-11-02T10:11:08.038Z,101423.34
2022-11-02T10:13:41.960Z,101419.78
2022-11-02T10:16:15.995Z,101419.75
2022-11-02T10:18:44.476Z,101428.41
2022-11-02T10:21:16.610Z,101423.28
2022-11-02T10:23:50.939Z,101426.81
2022-11-02T10:26:24.151Z,101431.84
2022-11-02T10:28:59.060Z,101433.63
2022-11-02T10:31:30.127Z,101428.50
2022-11-02T10:34:00.578Z,101425.00
2022-11-02T10:36:40.716Z,101430.25
2022-11-02T10:39:21.266Z,101425.09
2022-11-02T10:42:18.882Z,101420.78
2022-11-02T10:45:02.358Z,101426.78
2022-11-02T10:47:34.530Z,101432.03
2022-11-02T10:50:15.427Z,101421.66
2022-11-02T10:52:45.194Z,101429.41
2022-11-02T10:55:21.846Z,101430.31
2022-11-02T10:57:52.856Z,101438.94
2022-11-02T11:00:26.321Z,101425.97
2022-11-02T11:03:07.638Z,101425.06
2022-11-02T11:05:42.244Z,101437.19
2022-11-02T11:08:30.732Z,101435.41
2022-11-02T11:11:15.726Z,101444.06
2022-11-02T11:16:38.837Z,101439.72
2022-11-02T11:22:03.745Z,101451.06
2022-11-02T11:24:33.140Z,101466.66
2022-11-02T11:27:02.978Z,101459.56
2022-11-02T11:29:34.010Z,101463.19
2022-11-02T11:32:03.505Z,101455.38
2022-11-02T11:34:33.925Z,101450.16
2022-11-02T11:37:10.712Z,101466.69
2022-11-02T11:39:41.147Z,101462.34
2022-11-02T11:42:17.812Z,101461.47
2022-11-02T11:44:54.000Z,101458.03
2022-11-02T11:47:27.553Z,101464.84
2022-11-02T11:50:13.208Z,101459.72
2022-11-02T11:52:44.402Z,101451.03
2022-11-02T11:55:24.205Z,101457.09
2022-11-02T11:58:13.889Z,101449.31
2022-11-02T12:00:43.087Z,101459.75
2022-11-02T12:03:12.117Z,101439.84
2022-11-02T12:05:48.861Z,101444.97
2022-11-02T12:08:30.217Z,101438.94
2022-11-02T12:11:18.740Z,101454.53
2022-11-02T12:14:07.648Z,101446.75
2022-11-02T12:16:53.188Z,101442.41
2022-11-02T12:19:33.845Z,101441.50
2022-11-02T12:22:10.477Z,101441.56
2022-11-02T12:24:47.761Z,101437.19
2022-11-02T12:27:32.170Z,101433.72
2022-11-02T12:30:17.862Z,101440.63
2022-11-02T12:33:03.804Z,101447.59
2022-11-02T12:35:56.872Z,101443.31
2022-11-02T12:38:53.276Z,101429.41
2022-11-02T12:41:36.564Z,101433.78
2022-11-02T12:44:15.242Z,101436.34
2022-11-02T12:46:49.210Z,101432.88
2022-11-02T12:49:36.148Z,101442.38
2022-11-02T12:52:17.584Z,101441.56
2022-11-02T12:54:48.424Z,101453.69
2022-11-02T12:57:19.641Z,101456.28
2022-11-02T12:59:50.117Z,101463.19
2022-11-02T13:02:20.745Z,101458.00
2022-11-02T13:04:54.046Z,101454.53
2022-11-02T13:07:27.752Z,101458.88
2022-11-02T13:10:02.647Z,101458.88
2022-11-02T13:12:33.151Z,101465.78
2022-11-02T13:15:02.311Z,101463.22
2022-11-02T13:17:37.986Z,101461.44
2022-11-02T13:20:15.921Z,101457.94
2022-11-02T13:22:45.174Z,101457.66
2022-11-02T13:25:18.411Z,101462.94
2022-11-02T13:27:51.668Z,101458.00
2022-11-02T13:30:19.990Z,101467.56
2022-11-02T13:32:53.394Z,101468.41
2022-11-02T13:35:28.181Z,101472.75
2022-11-02T13:38:01.935Z,101473.59
2022-11-02T13:40:35.689Z,101466.59
2022-11-02T13:43:53.426Z,101465.81
2022-11-02T13:46:40.975Z,101472.72
2022-11-02T13:49:15.593Z,101458.88
2022-11-02T13:51:48.138Z,101459.75
2022-11-02T13:54:20.347Z,101461.28
2022-11-02T13:56:52.412Z,101466.31
2022-11-02T13:59:23.286Z,101469.25
2022-11-02T14:01:54.490Z,101469.00
2022-11-02T14:04:23.327Z,101464.56
2022-11-02T14:06:56.753Z,101471.88
2022-11-02T14:09:37.254Z,101472.72
2022-11-02T14:12:28.260Z,101477.94
2022-11-02T14:15:49.758Z,101477.94
2022-11-02T14:18:31.840Z,101475.28
2022-11-02T14:20:59.846Z,101483.88
2022-11-02T14:23:43.640Z,101490.94
2022-11-02T14:26:34.145Z,101487.47
2022-11-02T14:29:25.601Z,101482.25
2022-11-02T14:32:03.408Z,101486.59
2022-11-02T14:34:50.728Z,101497.88
2022-11-02T14:37:37.683Z,101501.31
2022-11-02T14:40:19.849Z,101499.56
2022-11-02T14:43:12.595Z,101513.44
2022-11-02T14:45:57.989Z,101515.06
2022-11-02T14:48:31.428Z,101515.16
2022-11-02T14:51:03.847Z,101516.03
2022-11-02T14:53:34.248Z,101514.28
2022-11-02T14:56:03.584Z,101527.28
2022-11-02T14:58:35.012Z,101519.41
2022-11-02T15:01:04.668Z,101524.59
2022-11-02T15:03:38.848Z,101535.03
2022-11-02T15:06:15.130Z,101527.31
2022-11-02T15:08:51.577Z,101541.03
2022-11-02T15:11:46.270Z,101542.88
2022-11-02T15:14:33.565Z,101548.94
2022-11-02T15:17:01.027Z,101540.31
2022-11-02T15:19:37.322Z,101542.81
2022-11-02T15:22:36.636Z,101550.63
2022-11-02T15:25:11.636Z,101560.97
2022-11-02T15:27:43.400Z,101557.47
2022-11-02T15:30:15.278Z,101560.09
2022-11-02T15:32:46.675Z,101559.22
2022-11-02T15:35:21.130Z,101565.34
2022-11-02T15:38:16.093Z,101563.59
2022-11-02T15:40:48.667Z,101575.75
2022-11-02T15:43:39.975Z,101567.09
2022-11-02T15:46:18.298Z,101577.34
2022-11-02T15:48:54.404Z,101580.94
2022-11-02T15:51:31.169Z,101572.31
2022-11-02T15:54:11.167Z,101588.03
2022-11-02T15:56:50.145Z,101582.31
2022-11-02T15:59:51.747Z,101579.75
2022-11-02T16:02:25.350Z,101585.94
2022-11-02T16:04:55.039Z,101585.31
2022-11-02T16:07:29.149Z,101592.09
2022-11-02T16:10:14.146Z,101593.94
2022-11-02T16:12:41.557Z,101593.78
2022-11-02T16:15:13.724Z,101592.16
2022-11-02T16:17:42.139Z,101594.53
2022-11-02T16:20:12.785Z,101601.41
2022-11-02T16:22:41.176Z,101592.97
2022-11-02T16:25:12.625Z,101592.09
2022-11-02T16:27:40.672Z,101592.91
2022-11-02T16:30:19.019Z,101609.16
2022-11-02T16:32:48.238Z,101610.06
2022-11-02T16:35:16.877Z,101604.22
2022-11-02T16:37:45.269Z,101603.94
2022-11-02T16:40:18.089Z,101607.63
2022-11-02T16:42:47.068Z,101611.94
2022-11-02T16:48:25.516Z,101625.63
2022-11-02T16:51:01.994Z,101625.53
2022-11-02T16:53:31.370Z,101626.88
2022-11-02T16:56:01.370Z,101628.19
2022-11-02T16:58:29.638Z,101630.06
2022-11-02T17:00:59.484Z,101635.88
2022-11-02T17:03:32.391Z,101642.97
2022-11-02T17:06:02.750Z,101644.34
2022-11-02T17:08:32.763Z,101643.75
2022-11-02T17:11:35.312Z,101649.44
2022-11-02T17:14:03.471Z,101644.38
2022-11-02T17:16:34.202Z,101644.44
2022-11-02T17:19:05.233Z,101649.59
2022-11-02T17:21:32.633Z,101641.75
2022-11-02T17:24:00.643Z,101648.44
2022-11-02T17:26:37.518Z,101649.38
2022-11-02T17:29:34.389Z,101660.09
2022-11-02T17:32:01.957Z,101657.03
2022-11-02T17:34:31.647Z,101658.09
2022-11-02T17:36:59.116Z,101655.31
2022-11-02T17:39:26.613Z,101662.78
2022-11-02T17:42:13.376Z,101661.13
2022-11-02T17:44:41.506Z,101657.84
2022-11-02T17:47:13.048Z,101660.06
2022-11-02T17:49:41.783Z,101666.25
2022-11-02T17:52:13.759Z,101663.75
2022-11-02T17:54:41.326Z,101671.66
2022-11-02T17:57:13.860Z,101675.81
2022-11-02T17:59:41.460Z,101672.44
2022-11-02T18:02:12.941Z,101660.78
2022-11-02T18:07:14.399Z,101677.88
2022-11-02T18:09:41.952Z,101684.53
2022-11-02T18:12:13.465Z,101678.78
2022-11-02T18:14:41.105Z,101681.25
2022-11-02T18:17:09.286Z,101684.59
2022-11-02T18:19:36.677Z,101682.91
2022-11-02T18:22:05.480Z,101679.56
2022-11-02T18:24:32.908Z,101685.56
2022-11-02T18:27:00.319Z,101687.72
2022-11-02T18:29:27.700Z,101685.06
2022-11-02T18:31:55.217Z,101690.91
2022-11-02T18:34:22.845Z,101694.53
2022-11-02T18:36:50.314Z,101695.94
2022-11-02T18:39:19.230Z,101690.63
2022-11-02T18:41:47.829Z,101680.47
2022-11-02T18:44:15.832Z,101686.75
2022-11-02T18:46:43.899Z,101687.03
2022-11-02T18:49:11.411Z,101695.06
2022-11-02T18:51:42.818Z,101700.28
2022-11-02T18:54:10.442Z,101687.44
2022-11-02T18:56:39.162Z,101696.72
2022-11-02T18:59:06.652Z,101693.31
2022-11-02T19:01:34.478Z,101697.59
2022-11-02T19:04:02.739Z,101696.59
2022-11-02T19:06:49.473Z,101694.97
2022-11-02T19:09:21.697Z,101695.97
2022-11-02T19:11:53.515Z,101694.97
2022-11-02T19:14:22.968Z,101691.44
2022-11-02T19:16:50.843Z,101697.66
2022-11-02T19:19:18.356Z,101689.00
2022-11-02T19:21:45.829Z,101689.84
2022-11-02T19:24:13.597Z,101698.34
2022-11-02T19:26:41.521Z,101692.22
2022-11-02T19:29:10.291Z,101688.69
2022-11-02T19:31:37.758Z,101697.44
2022-11-02T19:34:06.401Z,101699.31
2022-11-02T19:36:34.332Z,101692.41
2022-11-02T19:39:03.444Z,101690.72
2022-11-02T19:41:31.888Z,101692.25
2022-11-02T19:43:59.632Z,101686.97
2022-11-02T19:46:28.897Z,101688.03
2022-11-02T19:48:57.586Z,101692.94
2022-11-02T19:51:27.002Z,101686.78
2022-11-02T19:53:56.596Z,101691.88
2022-11-02T19:56:24.271Z,101693.63
2022-11-02T19:58:52.842Z,101691.06
2022-11-02T20:01:21.872Z,101694.56
2022-11-02T20:03:51.304Z,101700.38
2022-11-02T20:06:20.600Z,101705.31
2022-11-02T20:08:50.365Z,101703.59
2022-11-02T20:11:19.071Z,101715.53
2022-11-02T20:13:47.899Z,101720.56
2022-11-02T20:16:17.312Z,101715.00
2022-11-02T20:18:46.496Z,101722.00
2022-11-02T20:21:17.700Z,101721.81
2022-11-02T20:23:46.499Z,101722.63
2022-11-02T20:26:16.974Z,101723.75
2022-11-02T20:28:47.376Z,101716.72
2022-11-02T20:31:16.616Z,101715.94
2022-11-02T20:33:44.277Z,101719.56
2022-11-02T20:36:12.029Z,101723.06
2022-11-02T20:38:41.139Z,101722.00
2022-11-02T20:41:10.984Z,101722.72
2022-11-02T20:43:40.270Z,101724.63
2022-11-02T20:46:35.979Z,101727.88
2022-11-02T20:49:01.537Z,101735.28
2022-11-02T20:51:37.087Z,101730.81
2022-11-02T20:54:07.493Z,101723.53
2022-11-02T20:56:35.027Z,101730.50
2022-11-02T20:59:02.516Z,101736.16
2022-11-02T21:01:30.268Z,101738.78
2022-11-02T21:03:57.975Z,101730.97
2022-11-02T21:06:25.372Z,101735.97
2022-11-02T21:08:53.020Z,101736.84
2022-11-02T21:11:39.262Z,101740.09
2022-11-02T21:14:06.727Z,101737.66
2022-11-02T21:16:34.745Z,101733.53
2022-11-02T21:19:07.841Z,101738.59
2022-11-02T21:21:35.394Z,101745.22
2022-11-02T21:24:02.864Z,101744.16
2022-11-02T21:26:31.755Z,101743.09
2022-11-02T21:29:02.186Z,101745.72
2022-11-02T21:31:29.865Z,101736.03
2022-11-02T21:33:57.434Z,101748.16
2022-11-02T21:36:24.928Z,101740.09
2022-11-02T21:38:52.408Z,101745.00
2022-11-02T21:41:22.079Z,101742.63
2022-11-02T21:43:52.123Z,101741.81
2022-11-02T21:46:20.413Z,101745.47
2022-11-02T21:48:48.094Z,101741.66
2022-11-02T21:51:17.664Z,101733.38
2022-11-02T21:53:46.213Z,101734.78
2022-11-02T21:56:15.412Z,101735.41
2022-11-02T21:58:44.950Z,101745.03
2022-11-02T22:01:35.481Z,101747.41
2022-11-02T22:04:03.865Z,101741.06
2022-11-02T22:06:32.059Z,101733.28
2022-11-02T22:09:00.011Z,101737.03
2022-11-02T22:11:28.530Z,101742.00
2022-11-02T22:13:57.813Z,101735.09
2022-11-02T22:16:28.666Z,101729.00
2022-11-02T22:18:58.266Z,101725.03
2022-11-02T22:21:27.118Z,101729.22
2022-11-02T22:23:55.236Z,101726.63
2022-11-02T22:26:24.463Z,101725.03
2022-11-02T22:28:52.524Z,101726.91
2022-11-02T22:31:22.035Z,101724.75
2022-11-02T22:33:53.214Z,101726.69
2022-11-02T22:36:22.401Z,101728.53
2022-11-02T22:38:53.831Z,101728.41
2022-11-02T22:41:24.610Z,101721.41
2022-11-02T22:43:54.327Z,101717.16
2022-11-02T22:46:22.727Z,101716.38
2022-11-02T22:48:54.076Z,101714.53
2022-11-02T22:51:23.028Z,101715.38
2022-11-02T22:53:51.086Z,101717.88
2022-11-02T22:56:20.878Z,101717.13
2022-11-02T22:58:49.484Z,101708.78
2022-11-02T23:01:19.277Z,101710.16
2022-11-02T23:03:47.380Z,101714.38
2022-11-02T23:06:17.102Z,101722.84
2022-11-02T23:08:46.422Z,101703.47
2022-11-02T23:11:24.495Z,101710.97
2022-11-02T23:13:56.479Z,101720.38
2022-11-02T23:16:26.852Z,101713.00
2022-11-02T23:19:14.531Z,101712.44
2022-11-02T23:21:44.692Z,101712.59
2022-11-02T23:24:30.390Z,101713.28
2022-11-02T23:26:58.721Z,101721.03
2022-11-02T23:29:44.232Z,101710.81
2022-11-02T23:32:27.609Z,101712.25
2022-11-02T23:35:14.439Z,101708.75
2022-11-02T23:37:46.855Z,101717.00
2022-11-02T23:40:18.919Z,101710.44
2022-11-02T23:42:46.350Z,101710.22
2022-11-02T23:45:13.765Z,101706.28
2022-11-02T23:48:01.282Z,101698.31
2022-11-02T23:50:48.633Z,101702.31
2022-11-02T23:53:36.802Z,101694.97
2022-11-02T23:56:23.158Z,101696.56
2022-11-02T23:59:06.120Z,101705.47
